sensor_id;sensor_type;location;lat;lon;timestamp;pressure;altitude;pressure_sealevel;temperature;humidity
3464;BME280;3551;41.578;24.706;2023-03-13T06:50:36;91474.41;;;8.34;47.22
3464;BME280;3551;41.578;24.706;2023-03-13T06:53:18;91482.50;;;7.64;41.31
3464;BME280;3551;41.578;24.706;2023-03-13T06:56:25;91469.75;;;7.10;46.26
3464;BME280;3551;41.578;24.706;2023-03-13T07:22:47;91472.25;;;6.14;47.62
3464;BME280;3551;41.578;24.706;2023-03-13T07:29:32;91477.03;;;5.59;44.25
3464;BME280;3551;41.578;24.706;2023-03-13T07:32:32;91480.50;;;5.22;44.95
3464;BME280;3551;41.578;24.706;2023-03-13T08:03:03;91481.06;;;5.95;44.27
3464;BME280;3551;41.578;24.706;2023-03-13T08:05:31;91479.06;;;5.89;47.45
3464;BME280;3551;41.578;24.706;2023-03-13T08:25:05;91475.47;;;6.27;48.05
3464;BME280;3551;41.578;24.706;2023-03-13T08:27:48;91461.34;;;5.96;45.45
3464;BME280;3551;41.578;24.706;2023-03-13T08:30:19;91456.44;;;6.47;48.25
3464;BME280;3551;41.578;24.706;2023-03-13T08:32:56;91463.50;;;6.66;48.59
3464;BME280;3551;41.578;24.706;2023-03-13T08:35:29;91468.00;;;6.62;43.69
3464;BME280;3551;41.578;24.706;2023-03-13T08:38:01;91469.53;;;6.93;42.18
3464;BME280;3551;41.578;24.706;2023-03-13T08:58:39;91456.75;;;6.72;42.67
3464;BME280;3551;41.578;24.706;2023-03-13T09:01:24;91463.03;;;6.60;42.15
3464;BME280;3551;41.578;24.706;2023-03-13T09:04:32;91458.81;;;6.56;42.25
3464;BME280;3551;41.578;24.706;2023-03-13T09:07:03;91456.56;;;6.88;45.59
3464;BME280;3551;41.578;24.706;2023-03-13T09:10:01;91455.00;;;7.16;45.45
3464;BME280;3551;41.578;24.706;2023-03-13T09:21:41;91450.59;;;6.94;41.11
3464;BME280;3551;41.578;24.706;2023-03-13T10:44:55;91379.56;;;9.13;36.14
3464;BME280;3551;41.578;24.706;2023-03-13T10:47:31;91381.53;;;9.33;35.54
3464;BME280;3551;41.578;24.706;2023-03-13T10:50:00;91381.03;;;8.92;33.14
3464;BME280;3551;41.578;24.706;2023-03-13T10:52:30;91388.63;;;8.94;33.30
3464;BME280;3551;41.578;24.706;2023-03-13T10:54:59;91374.47;;;8.72;33.65
3464;BME280;3551;41.578;24.706;2023-03-13T10:57:35;91388.81;;;8.43;33.44
3464;BME280;3551;41.578;24.706;2023-03-13T11:00:40;91373.47;;;8.29;33.76
3464;BME280;3551;41.578;24.706;2023-03-13T11:24:19;91361.28;;;9.18;33.67
3464;BME280;3551;41.578;24.706;2023-03-13T11:26:49;91354.81;;;9.30;33.67
3464;BME280;3551;41.578;24.706;2023-03-13T11:37:08;91329.69;;;9.48;34.05
3464;BME280;3551;41.578;24.706;2023-03-13T11:50:03;91315.75;;;8.55;34.23
3464;BME280;3551;41.578;24.706;2023-03-13T11:52:37;91306.19;;;8.50;33.86
3464;BME280;3551;41.578;24.706;2023-03-13T11:55:17;91310.81;;;8.57;34.69
3464;BME280;3551;41.578;24.706;2023-03-13T11:57:49;91311.66;;;8.78;34.21
3464;BME280;3551;41.578;24.706;2023-03-13T12:00:19;91302.19;;;9.13;34.23
3464;BME280;3551;41.578;24.706;2023-03-13T12:02:49;91302.91;;;8.92;33.53
3464;BME280;3551;41.578;24.706;2023-03-13T12:05:19;91298.31;;;8.82;33.10
3464;BME280;3551;41.578;24.706;2023-03-13T12:07:49;91301.00;;;8.85;33.51
3464;BME280;3551;41.578;24.706;2023-03-13T12:10:20;91285.38;;;8.84;33.94
3464;BME280;3551;41.578;24.706;2023-03-13T12:13:07;91285.69;;;8.65;33.97
3464;BME280;3551;41.578;24.706;2023-03-13T12:15:39;91283.50;;;9.02;34.42
3464;BME280;3551;41.578;24.706;2023-03-13T12:55:35;91289.59;;;8.95;34.13
3464;BME280;3551;41.578;24.706;2023-03-13T12:58:20;91289.97;;;8.94;34.38
3464;BME280;3551;41.578;24.706;2023-03-13T13:00:53;91287.31;;;9.01;35.31
3464;BME280;3551;41.578;24.706;2023-03-13T13:03:43;91290.75;;;9.01;35.11
3464;BME280;3551;41.578;24.706;2023-03-13T13:06:15;91288.41;;;8.82;34.90
3464;BME280;3551;41.578;24.706;2023-03-13T13:08:43;91286.84;;;8.67;34.50
3464;BME280;3551;41.578;24.706;2023-03-13T13:11:47;91284.22;;;8.74;35.03
3464;BME280;3551;41.578;24.706;2023-03-13T13:39:06;91282.69;;;8.73;35.33
3464;BME280;3551;41.578;24.706;2023-03-13T13:41:47;91281.19;;;8.83;34.72
3464;BME280;3551;41.578;24.706;2023-03-13T13:49:53;91283.44;;;8.70;34.88
3464;BME280;3551;41.578;24.706;2023-03-13T13:57:55;91287.72;;;9.07;36.28
3464;BME280;3551;41.578;24.706;2023-03-13T14:00:25;91290.38;;;9.10;35.56
3464;BME280;3551;41.578;24.706;2023-03-13T14:02:53;91286.56;;;9.08;35.57
3464;BME280;3551;41.578;24.706;2023-03-13T14:05:22;91285.00;;;8.85;34.72
3464;BME280;3551;41.578;24.706;2023-03-13T14:07:54;91276.22;;;8.85;35.51
3464;BME280;3551;41.578;24.706;2023-03-13T14:19:17;91271.25;;;8.66;35.31
3464;BME280;3551;41.578;24.706;2023-03-13T14:21:46;91271.22;;;8.59;35.67
3464;BME280;3551;41.578;24.706;2023-03-13T14:31:52;91282.56;;;8.34;35.77
3464;BME280;3551;41.578;24.706;2023-03-13T14:34:23;91284.84;;;8.36;36.14
3464;BME280;3551;41.578;24.706;2023-03-13T14:36:50;91274.97;;;8.40;36.03
3464;BME280;3551;41.578;24.706;2023-03-13T14:39:19;91283.72;;;8.40;36.73
3464;BME280;3551;41.578;24.706;2023-03-13T14:41:49;91288.25;;;8.33;36.16
3464;BME280;3551;41.578;24.706;2023-03-13T14:44:19;91288.88;;;8.12;36.57
3464;BME280;3551;41.578;24.706;2023-03-13T14:46:48;91295.69;;;8.06;36.34
3464;BME280;3551;41.578;24.706;2023-03-13T14:49:32;91291.44;;;7.94;36.86
3464;BME280;3551;41.578;24.706;2023-03-13T14:52:13;91295.66;;;7.99;37.05
3464;BME280;3551;41.578;24.706;2023-03-13T15:00:52;91306.97;;;7.85;37.04
3464;BME280;3551;41.578;24.706;2023-03-13T15:03:48;91311.56;;;7.88;37.27
3464;BME280;3551;41.578;24.706;2023-03-13T15:06:23;91306.66;;;7.94;37.97
3464;BME280;3551;41.578;24.706;2023-03-13T15:45:47;91346.91;;;7.34;39.34
3464;BME280;3551;41.578;24.706;2023-03-13T15:49:08;91348.88;;;7.41;39.62
3464;BME280;3551;41.578;24.706;2023-03-13T15:55:54;91349.72;;;7.52;40.00
3464;BME280;3551;41.578;24.706;2023-03-13T15:59:09;91361.88;;;7.50;39.36
3464;BME280;3551;41.578;24.706;2023-03-13T17:54:56;91444.78;;;6.03;53.29
3464;BME280;3551;41.578;24.706;2023-03-13T18:04:11;91446.72;;;6.06;51.07
3464;BME280;3551;41.578;24.706;2023-03-13T18:07:37;91451.00;;;6.14;53.74
